Terminal Aerodrome Forecast
Issued by NWS Upton, NY

Current Version | Previous Version | Text Only | Print | Product List | Glossary On
Versions: 1 2 3 4 5 6 7 8 9 10 11 12 13 14 15 16 17 18 19 20 21 22 23 24 25 26
000 FTUS41 KOKX 010500 RRA TAFISP TAF KISP 010544Z 0106/0206 19005KT P6SM SCT100 BKN250 FM011400 21006KT P6SM FEW250 FM011700 18010KT P6SM FEW060 SCT250 FM020000 18007KT P6SM FEW060 BKN150 FM020500 VRB05KT P6SM SCT050 BKN100=

USA.gov is the U.S. government's official web portal to all federal, state and local government web resources and services.